sensor_id;sensor_type;location;lat;lon;timestamp;P1;durP1;ratioP1;P2;durP2;ratioP2
68523;SDS011;55524;51.380;13.372;2023-08-01T00:00:08;7.65;;;3.30;;
68523;SDS011;55524;51.380;13.372;2023-08-01T00:02:35;6.45;;;3.25;;
68523;SDS011;55524;51.380;13.372;2023-08-01T00:05:01;4.55;;;3.28;;
68523;SDS011;55524;51.380;13.372;2023-08-01T00:07:28;6.35;;;3.05;;
68523;SDS011;55524;51.380;13.372;2023-08-01T00:09:54;7.45;;;3.35;;
68523;SDS011;55524;51.380;13.372;2023-08-01T00:12:20;5.70;;;3.20;;
68523;SDS011;55524;51.380;13.372;2023-08-01T00:14:49;4.80;;;3.00;;
68523;SDS011;55524;51.380;13.372;2023-08-01T00:17:15;6.90;;;3.00;;
68523;SDS011;55524;51.380;13.372;2023-08-01T00:19:41;5.65;;;3.30;;
68523;SDS011;55524;51.380;13.372;2023-08-01T00:22:07;5.20;;;3.50;;
68523;SDS011;55524;51.380;13.372;2023-08-01T00:24:35;6.45;;;3.30;;
68523;SDS011;55524;51.380;13.372;2023-08-01T00:27:02;4.00;;;2.97;;
68523;SDS011;55524;51.380;13.372;2023-08-01T00:29:29;8.88;;;3.17;;
68523;SDS011;55524;51.380;13.372;2023-08-01T00:31:55;4.28;;;3.08;;
68523;SDS011;55524;51.380;13.372;2023-08-01T00:34:22;6.63;;;2.80;;
68523;SDS011;55524;51.380;13.372;2023-08-01T00:36:48;5.13;;;3.05;;
68523;SDS011;55524;51.380;13.372;2023-08-01T00:39:14;6.93;;;2.85;;
68523;SDS011;55524;51.380;13.372;2023-08-01T00:41:40;3.17;;;2.88;;
68523;SDS011;55524;51.380;13.372;2023-08-01T00:44:07;4.57;;;2.67;;
68523;SDS011;55524;51.380;13.372;2023-08-01T00:46:33;4.57;;;3.13;;
68523;SDS011;55524;51.380;13.372;2023-08-01T00:48:59;6.75;;;3.03;;
68523;SDS011;55524;51.380;13.372;2023-08-01T00:51:26;5.43;;;3.00;;
68523;SDS011;55524;51.380;13.372;2023-08-01T00:53:52;4.15;;;2.88;;
68523;SDS011;55524;51.380;13.372;2023-08-01T00:56:19;7.47;;;2.95;;
68523;SDS011;55524;51.380;13.372;2023-08-01T00:58:46;4.13;;;2.90;;
68523;SDS011;55524;51.380;13.372;2023-08-01T01:01:12;5.40;;;3.00;;
68523;SDS011;55524;51.380;13.372;2023-08-01T01:03:38;5.15;;;2.40;;
68523;SDS011;55524;51.380;13.372;2023-08-01T01:08:42;4.93;;;2.88;;
68523;SDS011;55524;51.380;13.372;2023-08-01T01:11:09;3.20;;;2.30;;
68523;SDS011;55524;51.380;13.372;2023-08-01T01:13:35;4.78;;;2.80;;
68523;SDS011;55524;51.380;13.372;2023-08-01T01:16:01;6.35;;;2.50;;
68523;SDS011;55524;51.380;13.372;2023-08-01T01:18:28;8.65;;;3.00;;
68523;SDS011;55524;51.380;13.372;2023-08-01T01:20:54;7.47;;;2.70;;
68523;SDS011;55524;51.380;13.372;2023-08-01T01:23:20;4.53;;;2.70;;
68523;SDS011;55524;51.380;13.372;2023-08-01T01:25:48;7.50;;;2.88;;
68523;SDS011;55524;51.380;13.372;2023-08-01T01:28:16;6.75;;;2.75;;
68523;SDS011;55524;51.380;13.372;2023-08-01T01:30:43;4.90;;;2.60;;
68523;SDS011;55524;51.380;13.372;2023-08-01T01:33:10;4.43;;;2.80;;
68523;SDS011;55524;51.380;13.372;2023-08-01T01:35:37;5.88;;;3.00;;
68523;SDS011;55524;51.380;13.372;2023-08-01T01:38:04;7.22;;;2.88;;
68523;SDS011;55524;51.380;13.372;2023-08-01T01:40:30;3.20;;;2.80;;
68523;SDS011;55524;51.380;13.372;2023-08-01T01:42:58;6.70;;;2.88;;
68523;SDS011;55524;51.380;13.372;2023-08-01T01:45:25;4.57;;;3.03;;
68523;SDS011;55524;51.380;13.372;2023-08-01T01:47:52;5.00;;;3.10;;
68523;SDS011;55524;51.380;13.372;2023-08-01T01:57:29;6.78;;;2.95;;
68523;SDS011;55524;51.380;13.372;2023-08-01T01:59:55;3.63;;;2.70;;
68523;SDS011;55524;51.380;13.372;2023-08-01T02:02:21;3.83;;;2.55;;
68523;SDS011;55524;51.380;13.372;2023-08-01T02:04:49;3.92;;;2.50;;
68523;SDS011;55524;51.380;13.372;2023-08-01T02:07:16;3.28;;;2.78;;
68523;SDS011;55524;51.380;13.372;2023-08-01T02:09:42;5.68;;;2.67;;
68523;SDS011;55524;51.380;13.372;2023-08-01T02:12:08;4.03;;;2.70;;
68523;SDS011;55524;51.380;13.372;2023-08-01T02:14:38;4.18;;;3.00;;
68523;SDS011;55524;51.380;13.372;2023-08-01T02:17:05;3.35;;;2.70;;
68523;SDS011;55524;51.380;13.372;2023-08-01T02:19:32;3.20;;;2.80;;
68523;SDS011;55524;51.380;13.372;2023-08-01T02:21:58;5.60;;;3.08;;
68523;SDS011;55524;51.380;13.372;2023-08-01T02:24:25;4.25;;;2.65;;
68523;SDS011;55524;51.380;13.372;2023-08-01T02:26:51;2.95;;;2.63;;
68523;SDS011;55524;51.380;13.372;2023-08-01T02:29:17;5.03;;;2.83;;
68523;SDS011;55524;51.380;13.372;2023-08-01T02:31:44;4.43;;;3.13;;
68523;SDS011;55524;51.380;13.372;2023-08-01T02:34:10;4.05;;;2.60;;
68523;SDS011;55524;51.380;13.372;2023-08-01T02:36:36;4.97;;;2.80;;
68523;SDS011;55524;51.380;13.372;2023-08-01T02:39:02;3.70;;;2.90;;
68523;SDS011;55524;51.380;13.372;2023-08-01T02:41:28;3.78;;;2.85;;
68523;SDS011;55524;51.380;13.372;2023-08-01T02:43:55;4.93;;;2.90;;
68523;SDS011;55524;51.380;13.372;2023-08-01T02:46:21;6.40;;;3.00;;
68523;SDS011;55524;51.380;13.372;2023-08-01T02:48:48;3.35;;;2.60;;
68523;SDS011;55524;51.380;13.372;2023-08-01T02:51:14;2.70;;;2.47;;
68523;SDS011;55524;51.380;13.372;2023-08-01T02:53:40;4.00;;;2.92;;
68523;SDS011;55524;51.380;13.372;2023-08-01T02:56:07;2.83;;;2.40;;
68523;SDS011;55524;51.380;13.372;2023-08-01T02:58:35;2.97;;;2.40;;
68523;SDS011;55524;51.380;13.372;2023-08-01T03:01:01;2.97;;;2.58;;
68523;SDS011;55524;51.380;13.372;2023-08-01T03:03:34;5.07;;;2.70;;
68523;SDS011;55524;51.380;13.372;2023-08-01T03:06:01;3.75;;;2.60;;
68523;SDS011;55524;51.380;13.372;2023-08-01T03:08:28;4.10;;;2.40;;
68523;SDS011;55524;51.380;13.372;2023-08-01T03:10:54;3.75;;;2.63;;
68523;SDS011;55524;51.380;13.372;2023-08-01T03:13:21;4.97;;;2.60;;
68523;SDS011;55524;51.380;13.372;2023-08-01T03:15:47;3.53;;;2.80;;
68523;SDS011;55524;51.380;13.372;2023-08-01T03:18:13;4.63;;;2.72;;
68523;SDS011;55524;51.380;13.372;2023-08-01T03:20:40;4.10;;;2.72;;
68523;SDS011;55524;51.380;13.372;2023-08-01T03:23:06;5.15;;;2.75;;
68523;SDS011;55524;51.380;13.372;2023-08-01T03:25:32;6.82;;;3.10;;
68523;SDS011;55524;51.380;13.372;2023-08-01T03:27:59;3.78;;;2.90;;
68523;SDS011;55524;51.380;13.372;2023-08-01T03:30:25;4.13;;;2.80;;
68523;SDS011;55524;51.380;13.372;2023-08-01T03:32:51;4.15;;;2.88;;
68523;SDS011;55524;51.380;13.372;2023-08-01T03:35:18;3.03;;;2.72;;
68523;SDS011;55524;51.380;13.372;2023-08-01T03:37:44;5.35;;;3.10;;
68523;SDS011;55524;51.380;13.372;2023-08-01T03:40:10;3.33;;;2.80;;
68523;SDS011;55524;51.380;13.372;2023-08-01T03:42:37;3.38;;;3.08;;
68523;SDS011;55524;51.380;13.372;2023-08-01T03:45:03;6.07;;;2.42;;
68523;SDS011;55524;51.380;13.372;2023-08-01T03:47:30;3.45;;;2.60;;
68523;SDS011;55524;51.380;13.372;2023-08-01T03:49:57;4.28;;;2.30;;
68523;SDS011;55524;51.380;13.372;2023-08-01T03:52:23;3.85;;;2.85;;
68523;SDS011;55524;51.380;13.372;2023-08-01T03:54:53;6.47;;;3.25;;
68523;SDS011;55524;51.380;13.372;2023-08-01T03:57:20;3.25;;;2.70;;
68523;SDS011;55524;51.380;13.372;2023-08-01T03:59:46;7.10;;;2.85;;
68523;SDS011;55524;51.380;13.372;2023-08-01T04:02:13;6.03;;;3.33;;
68523;SDS011;55524;51.380;13.372;2023-08-01T04:04:39;7.72;;;3.25;;
68523;SDS011;55524;51.380;13.372;2023-08-01T04:07:05;5.35;;;2.95;;
68523;SDS011;55524;51.380;13.372;2023-08-01T04:09:31;5.60;;;3.47;;
68523;SDS011;55524;51.380;13.372;2023-08-01T04:11:58;4.18;;;2.55;;
68523;SDS011;55524;51.380;13.372;2023-08-01T04:14:24;7.85;;;2.78;;
68523;SDS011;55524;51.380;13.372;2023-08-01T04:16:51;3.63;;;2.78;;
68523;SDS011;55524;51.380;13.372;2023-08-01T04:19:17;5.45;;;3.00;;
68523;SDS011;55524;51.380;13.372;2023-08-01T04:21:43;3.22;;;2.60;;
68523;SDS011;55524;51.380;13.372;2023-08-01T04:24:09;4.07;;;2.60;;
68523;SDS011;55524;51.380;13.372;2023-08-01T04:26:36;7.72;;;2.67;;
68523;SDS011;55524;51.380;13.372;2023-08-01T04:29:02;3.78;;;2.70;;
68523;SDS011;55524;51.380;13.372;2023-08-01T04:31:28;5.20;;;2.70;;
68523;SDS011;55524;51.380;13.372;2023-08-01T04:33:55;4.13;;;2.28;;
68523;SDS011;55524;51.380;13.372;2023-08-01T04:36:21;3.42;;;2.38;;
68523;SDS011;55524;51.380;13.372;2023-08-01T04:38:47;3.72;;;2.20;;
68523;SDS011;55524;51.380;13.372;2023-08-01T04:41:14;3.28;;;2.45;;
68523;SDS011;55524;51.380;13.372;2023-08-01T04:43:40;6.95;;;2.67;;
68523;SDS011;55524;51.380;13.372;2023-08-01T04:46:06;4.40;;;2.10;;
68523;SDS011;55524;51.380;13.372;2023-08-01T04:48:33;2.40;;;2.20;;
68523;SDS011;55524;51.380;13.372;2023-08-01T04:50:59;3.10;;;2.10;;
68523;SDS011;55524;51.380;13.372;2023-08-01T04:53:25;3.90;;;1.88;;
68523;SDS011;55524;51.380;13.372;2023-08-01T04:55:51;4.20;;;2.00;;
68523;SDS011;55524;51.380;13.372;2023-08-01T04:58:17;5.10;;;2.17;;
68523;SDS011;55524;51.380;13.372;2023-08-01T05:00:44;2.30;;;2.10;;
68523;SDS011;55524;51.380;13.372;2023-08-01T05:03:10;4.40;;;2.22;;
68523;SDS011;55524;51.380;13.372;2023-08-01T05:05:36;5.72;;;2.40;;
68523;SDS011;55524;51.380;13.372;2023-08-01T05:08:03;3.17;;;2.03;;
68523;SDS011;55524;51.380;13.372;2023-08-01T05:10:29;2.95;;;2.33;;
68523;SDS011;55524;51.380;13.372;2023-08-01T05:12:55;2.00;;;1.80;;
68523;SDS011;55524;51.380;13.372;2023-08-01T05:15:22;5.03;;;1.60;;
68523;SDS011;55524;51.380;13.372;2023-08-01T05:17:48;3.25;;;1.70;;
68523;SDS011;55524;51.380;13.372;2023-08-01T05:20:15;2.65;;;1.85;;
68523;SDS011;55524;51.380;13.372;2023-08-01T05:22:41;4.03;;;1.75;;
68523;SDS011;55524;51.380;13.372;2023-08-01T05:25:07;3.95;;;1.60;;
68523;SDS011;55524;51.380;13.372;2023-08-01T05:27:34;3.05;;;1.88;;
68523;SDS011;55524;51.380;13.372;2023-08-01T05:30:00;2.90;;;1.50;;
68523;SDS011;55524;51.380;13.372;2023-08-01T05:32:26;1.35;;;1.27;;
68523;SDS011;55524;51.380;13.372;2023-08-01T05:34:53;1.58;;;1.42;;
68523;SDS011;55524;51.380;13.372;2023-08-01T05:37:19;3.92;;;1.58;;
68523;SDS011;55524;51.380;13.372;2023-08-01T05:39:45;2.97;;;1.55;;
68523;SDS011;55524;51.380;13.372;2023-08-01T05:42:11;1.77;;;1.42;;
68523;SDS011;55524;51.380;13.372;2023-08-01T05:44:38;2.60;;;1.35;;
68523;SDS011;55524;51.380;13.372;2023-08-01T05:47:04;1.50;;;1.40;;
68523;SDS011;55524;51.380;13.372;2023-08-01T05:49:30;1.52;;;1.40;;
68523;SDS011;55524;51.380;13.372;2023-08-01T05:51:56;3.45;;;1.38;;
68523;SDS011;55524;51.380;13.372;2023-08-01T05:54:23;4.10;;;1.40;;
68523;SDS011;55524;51.380;13.372;2023-08-01T05:56:49;2.65;;;1.30;;
68523;SDS011;55524;51.380;13.372;2023-08-01T05:59:15;4.18;;;1.52;;
68523;SDS011;55524;51.380;13.372;2023-08-01T06:01:41;7.03;;;1.73;;
68523;SDS011;55524;51.380;13.372;2023-08-01T06:04:08;8.73;;;2.10;;
68523;SDS011;55524;51.380;13.372;2023-08-01T06:06:34;3.38;;;1.40;;
68523;SDS011;55524;51.380;13.372;2023-08-01T06:09:01;3.38;;;1.75;;
68523;SDS011;55524;51.380;13.372;2023-08-01T06:11:27;21.98;;;2.70;;
68523;SDS011;55524;51.380;13.372;2023-08-01T06:13:54;31.30;;;3.78;;
68523;SDS011;55524;51.380;13.372;2023-08-01T06:16:20;7.68;;;1.77;;
68523;SDS011;55524;51.380;13.372;2023-08-01T06:18:46;1.27;;;1.17;;
68523;SDS011;55524;51.380;13.372;2023-08-01T06:21:12;3.47;;;1.30;;
68523;SDS011;55524;51.380;13.372;2023-08-01T06:23:39;10.13;;;1.67;;
68523;SDS011;55524;51.380;13.372;2023-08-01T06:26:05;3.63;;;1.23;;
68523;SDS011;55524;51.380;13.372;2023-08-01T06:28:32;3.75;;;1.60;;
68523;SDS011;55524;51.380;13.372;2023-08-01T06:30:58;2.25;;;1.30;;
68523;SDS011;55524;51.380;13.372;2023-08-01T06:33:24;7.15;;;1.30;;
68523;SDS011;55524;51.380;13.372;2023-08-01T06:35:50;1.55;;;1.10;;
68523;SDS011;55524;51.380;13.372;2023-08-01T06:38:17;1.52;;;1.20;;
68523;SDS011;55524;51.380;13.372;2023-08-01T06:40:43;2.00;;;1.15;;
68523;SDS011;55524;51.380;13.372;2023-08-01T06:43:09;4.68;;;1.40;;
68523;SDS011;55524;51.380;13.372;2023-08-01T06:45:36;3.90;;;1.45;;
68523;SDS011;55524;51.380;13.372;2023-08-01T06:48:02;7.75;;;1.45;;
68523;SDS011;55524;51.380;13.372;2023-08-01T06:50:28;2.15;;;1.42;;
68523;SDS011;55524;51.380;13.372;2023-08-01T06:52:55;1.83;;;1.48;;
68523;SDS011;55524;51.380;13.372;2023-08-01T06:55:21;2.33;;;1.25;;
68523;SDS011;55524;51.380;13.372;2023-08-01T06:57:47;2.00;;;1.30;;
68523;SDS011;55524;51.380;13.372;2023-08-01T07:00:14;1.60;;;1.20;;
68523;SDS011;55524;51.380;13.372;2023-08-01T07:02:40;4.53;;;1.55;;
68523;SDS011;55524;51.380;13.372;2023-08-01T07:05:07;6.75;;;1.65;;
68523;SDS011;55524;51.380;13.372;2023-08-01T07:07:33;4.90;;;1.38;;
68523;SDS011;55524;51.380;13.372;2023-08-01T07:09:59;1.85;;;1.20;;
68523;SDS011;55524;51.380;13.372;2023-08-01T07:12:26;2.45;;;1.10;;
68523;SDS011;55524;51.380;13.372;2023-08-01T07:14:52;3.05;;;1.40;;
68523;SDS011;55524;51.380;13.372;2023-08-01T07:17:18;1.10;;;1.10;;
68523;SDS011;55524;51.380;13.372;2023-08-01T07:19:44;1.10;;;1.00;;
68523;SDS011;55524;51.380;13.372;2023-08-01T07:22:11;1.55;;;1.15;;
68523;SDS011;55524;51.380;13.372;2023-08-01T07:24:37;2.20;;;1.38;;
68523;SDS011;55524;51.380;13.372;2023-08-01T07:27:03;2.13;;;1.02;;
68523;SDS011;55524;51.380;13.372;2023-08-01T07:29:30;11.27;;;1.90;;
68523;SDS011;55524;51.380;13.372;2023-08-01T07:31:56;3.63;;;1.20;;
68523;SDS011;55524;51.380;13.372;2023-08-01T07:34:22;1.27;;;1.17;;
68523;SDS011;55524;51.380;13.372;2023-08-01T07:36:49;3.28;;;1.20;;
68523;SDS011;55524;51.380;13.372;2023-08-01T07:39:15;10.10;;;1.83;;
68523;SDS011;55524;51.380;13.372;2023-08-01T07:41:42;2.17;;;1.48;;
68523;SDS011;55524;51.380;13.372;2023-08-01T07:44:08;1.90;;;1.33;;
68523;SDS011;55524;51.380;13.372;2023-08-01T07:46:34;26.27;;;3.63;;
68523;SDS011;55524;51.380;13.372;2023-08-01T07:52:23;2.35;;;1.67;;
68523;SDS011;55524;51.380;13.372;2023-08-01T07:54:49;2.15;;;1.45;;
68523;SDS011;55524;51.380;13.372;2023-08-01T07:57:18;5.43;;;1.77;;
68523;SDS011;55524;51.380;13.372;2023-08-01T07:59:44;3.75;;;1.40;;
68523;SDS011;55524;51.380;13.372;2023-08-01T08:02:11;4.43;;;1.35;;
68523;SDS011;55524;51.380;13.372;2023-08-01T08:04:37;3.67;;;1.50;;
68523;SDS011;55524;51.380;13.372;2023-08-01T08:07:04;1.95;;;1.50;;
68523;SDS011;55524;51.380;13.372;2023-08-01T08:09:30;4.97;;;1.60;;
68523;SDS011;55524;51.380;13.372;2023-08-01T08:11:56;3.35;;;1.30;;
68523;SDS011;55524;51.380;13.372;2023-08-01T08:14:23;2.20;;;1.40;;
68523;SDS011;55524;51.380;13.372;2023-08-01T08:16:49;1.40;;;1.30;;
68523;SDS011;55524;51.380;13.372;2023-08-01T08:19:16;1.75;;;1.58;;
68523;SDS011;55524;51.380;13.372;2023-08-01T08:21:42;2.28;;;1.25;;
68523;SDS011;55524;51.380;13.372;2023-08-01T08:24:09;1.88;;;1.45;;
68523;SDS011;55524;51.380;13.372;2023-08-01T08:26:35;2.53;;;1.23;;
68523;SDS011;55524;51.380;13.372;2023-08-01T08:29:04;3.15;;;1.10;;
68523;SDS011;55524;51.380;13.372;2023-08-01T08:31:31;3.80;;;1.30;;
68523;SDS011;55524;51.380;13.372;2023-08-01T08:33:57;12.90;;;2.65;;
68523;SDS011;55524;51.380;13.372;2023-08-01T08:36:23;1.17;;;1.08;;
68523;SDS011;55524;51.380;13.372;2023-08-01T08:38:50;31.90;;;3.20;;
68523;SDS011;55524;51.380;13.372;2023-08-01T08:41:20;2.22;;;1.25;;
68523;SDS011;55524;51.380;13.372;2023-08-01T08:43:49;1.52;;;1.00;;
68523;SDS011;55524;51.380;13.372;2023-08-01T08:46:16;16.95;;;2.10;;
68523;SDS011;55524;51.380;13.372;2023-08-01T08:48:45;0.93;;;0.90;;
68523;SDS011;55524;51.380;13.372;2023-08-01T08:51:11;1.27;;;0.80;;
68523;SDS011;55524;51.380;13.372;2023-08-01T08:53:38;0.65;;;0.60;;
68523;SDS011;55524;51.380;13.372;2023-08-01T08:56:08;0.60;;;0.60;;
68523;SDS011;55524;51.380;13.372;2023-08-01T08:58:36;2.25;;;0.90;;
68523;SDS011;55524;51.380;13.372;2023-08-01T09:01:06;2.47;;;0.77;;
68523;SDS011;55524;51.380;13.372;2023-08-01T09:03:33;4.00;;;0.85;;
68523;SDS011;55524;51.380;13.372;2023-08-01T09:06:03;2.25;;;0.88;;
68523;SDS011;55524;51.380;13.372;2023-08-01T09:08:37;4.10;;;0.70;;
68523;SDS011;55524;51.380;13.372;2023-08-01T09:11:08;1.42;;;0.70;;
68523;SDS011;55524;51.380;13.372;2023-08-01T09:13:35;7.13;;;0.70;;
68523;SDS011;55524;51.380;13.372;2023-08-01T09:16:01;5.20;;;0.80;;
68523;SDS011;55524;51.380;13.372;2023-08-01T09:18:31;2.17;;;0.70;;
68523;SDS011;55524;51.380;13.372;2023-08-01T09:20:58;0.63;;;0.60;;
68523;SDS011;55524;51.380;13.372;2023-08-01T09:23:28;1.15;;;0.77;;
68523;SDS011;55524;51.380;13.372;2023-08-01T09:25:55;0.77;;;0.60;;
68523;SDS011;55524;51.380;13.372;2023-08-01T09:28:22;0.93;;;0.88;;
68523;SDS011;55524;51.380;13.372;2023-08-01T09:30:49;1.92;;;1.00;;
68523;SDS011;55524;51.380;13.372;2023-08-01T09:33:19;3.42;;;1.02;;
68523;SDS011;55524;51.380;13.372;2023-08-01T09:35:45;2.92;;;0.93;;
68523;SDS011;55524;51.380;13.372;2023-08-01T09:38:14;2.00;;;0.82;;
68523;SDS011;55524;51.380;13.372;2023-08-01T09:40:41;2.58;;;1.10;;
68523;SDS011;55524;51.380;13.372;2023-08-01T09:43:09;1.48;;;0.95;;
68523;SDS011;55524;51.380;13.372;2023-08-01T09:45:36;2.47;;;1.00;;
68523;SDS011;55524;51.380;13.372;2023-08-01T09:48:03;0.85;;;0.73;;
68523;SDS011;55524;51.380;13.372;2023-08-01T09:50:30;0.75;;;0.73;;
68523;SDS011;55524;51.380;13.372;2023-08-01T09:53:06;1.25;;;0.80;;
68523;SDS011;55524;51.380;13.372;2023-08-01T09:55:33;46.22;;;5.13;;
68523;SDS011;55524;51.380;13.372;2023-08-01T09:58:00;1.90;;;0.70;;
68523;SDS011;55524;51.380;13.372;2023-08-01T10:00:27;1.25;;;0.75;;
68523;SDS011;55524;51.380;13.372;2023-08-01T10:02:55;0.70;;;0.70;;
68523;SDS011;55524;51.380;13.372;2023-08-01T10:05:29;0.50;;;0.50;;
68523;SDS011;55524;51.380;13.372;2023-08-01T10:08:00;1.95;;;0.85;;
68523;SDS011;55524;51.380;13.372;2023-08-01T10:10:28;3.50;;;0.80;;
68523;SDS011;55524;51.380;13.372;2023-08-01T10:12:57;0.60;;;0.60;;
68523;SDS011;55524;51.380;13.372;2023-08-01T10:15:25;1.88;;;1.02;;
68523;SDS011;55524;51.380;13.372;2023-08-01T10:17:54;1.88;;;0.70;;
68523;SDS011;55524;51.380;13.372;2023-08-01T10:20:20;0.73;;;0.70;;
68523;SDS011;55524;51.380;13.372;2023-08-01T10:22:48;1.33;;;0.88;;
68523;SDS011;55524;51.380;13.372;2023-08-01T10:25:16;0.93;;;0.80;;
68523;SDS011;55524;51.380;13.372;2023-08-01T10:27:43;1.00;;;0.90;;
68523;SDS011;55524;51.380;13.372;2023-08-01T10:30:10;5.05;;;0.90;;
68523;SDS011;55524;51.380;13.372;2023-08-01T10:32:37;4.63;;;1.08;;
68523;SDS011;55524;51.380;13.372;2023-08-01T10:35:05;2.25;;;0.90;;
68523;SDS011;55524;51.380;13.372;2023-08-01T10:40:12;3.22;;;0.90;;
68523;SDS011;55524;51.380;13.372;2023-08-01T10:42:44;1.10;;;0.82;;
68523;SDS011;55524;51.380;13.372;2023-08-01T10:45:22;1.60;;;0.70;;
68523;SDS011;55524;51.380;13.372;2023-08-01T10:47:50;2.30;;;0.82;;
68523;SDS011;55524;51.380;13.372;2023-08-01T10:50:16;5.10;;;0.95;;
68523;SDS011;55524;51.380;13.372;2023-08-01T10:52:44;2.03;;;0.73;;
68523;SDS011;55524;51.380;13.372;2023-08-01T10:55:11;3.72;;;1.08;;
68523;SDS011;55524;51.380;13.372;2023-08-01T10:57:38;1.58;;;0.80;;
68523;SDS011;55524;51.380;13.372;2023-08-01T11:00:17;1.23;;;0.95;;
68523;SDS011;55524;51.380;13.372;2023-08-01T11:02:48;0.77;;;0.75;;
68523;SDS011;55524;51.380;13.372;2023-08-01T11:07:52;3.83;;;0.90;;
68523;SDS011;55524;51.380;13.372;2023-08-01T11:10:20;8.68;;;1.30;;
68523;SDS011;55524;51.380;13.372;2023-08-01T11:12:46;2.28;;;1.10;;
68523;SDS011;55524;51.380;13.372;2023-08-01T11:15:13;1.27;;;1.02;;
68523;SDS011;55524;51.380;13.372;2023-08-01T11:17:40;2.75;;;0.90;;
68523;SDS011;55524;51.380;13.372;2023-08-01T11:20:11;1.35;;;0.90;;
68523;SDS011;55524;51.380;13.372;2023-08-01T11:22:38;1.08;;;0.80;;
68523;SDS011;55524;51.380;13.372;2023-08-01T11:25:19;1.10;;;0.82;;
68523;SDS011;55524;51.380;13.372;2023-08-01T11:27:57;3.83;;;0.77;;
68523;SDS011;55524;51.380;13.372;2023-08-01T11:30:30;3.75;;;0.93;;
68523;SDS011;55524;51.380;13.372;2023-08-01T11:35:23;3.25;;;0.88;;
68523;SDS011;55524;51.380;13.372;2023-08-01T11:37:50;2.83;;;1.05;;
68523;SDS011;55524;51.380;13.372;2023-08-01T11:40:17;4.80;;;1.20;;
68523;SDS011;55524;51.380;13.372;2023-08-01T11:42:48;1.10;;;0.90;;
68523;SDS011;55524;51.380;13.372;2023-08-01T11:45:18;2.78;;;0.80;;
68523;SDS011;55524;51.380;13.372;2023-08-01T11:47:45;2.15;;;1.02;;
68523;SDS011;55524;51.380;13.372;2023-08-01T11:50:13;0.88;;;0.85;;
68523;SDS011;55524;51.380;13.372;2023-08-01T11:52:39;0.68;;;0.63;;
68523;SDS011;55524;51.380;13.372;2023-08-01T11:55:06;1.38;;;0.60;;
68523;SDS011;55524;51.380;13.372;2023-08-01T11:57:32;0.63;;;0.60;;
68523;SDS011;55524;51.380;13.372;2023-08-01T11:59:59;1.15;;;0.70;;
68523;SDS011;55524;51.380;13.372;2023-08-01T12:02:26;3.47;;;0.90;;
68523;SDS011;55524;51.380;13.372;2023-08-01T12:04:55;0.70;;;0.70;;
68523;SDS011;55524;51.380;13.372;2023-08-01T12:07:24;1.02;;;0.85;;
68523;SDS011;55524;51.380;13.372;2023-08-01T12:09:54;4.05;;;1.00;;
68523;SDS011;55524;51.380;13.372;2023-08-01T12:12:25;14.60;;;1.92;;
68523;SDS011;55524;51.380;13.372;2023-08-01T12:14:53;2.28;;;0.80;;
68523;SDS011;55524;51.380;13.372;2023-08-01T12:17:19;3.42;;;0.90;;
68523;SDS011;55524;51.380;13.372;2023-08-01T12:19:46;0.70;;;0.70;;
68523;SDS011;55524;51.380;13.372;2023-08-01T12:22:12;1.88;;;0.65;;
68523;SDS011;55524;51.380;13.372;2023-08-01T12:24:39;2.05;;;0.60;;
68523;SDS011;55524;51.380;13.372;2023-08-01T12:27:09;0.43;;;0.43;;
68523;SDS011;55524;51.380;13.372;2023-08-01T12:29:36;0.47;;;0.47;;
68523;SDS011;55524;51.380;13.372;2023-08-01T12:32:02;5.63;;;0.80;;
68523;SDS011;55524;51.380;13.372;2023-08-01T12:34:29;3.70;;;0.85;;
68523;SDS011;55524;51.380;13.372;2023-08-01T12:36:55;1.30;;;0.63;;
68523;SDS011;55524;51.380;13.372;2023-08-01T12:39:22;0.43;;;0.43;;
68523;SDS011;55524;51.380;13.372;2023-08-01T12:41:50;0.50;;;0.50;;
68523;SDS011;55524;51.380;13.372;2023-08-01T12:44:18;0.55;;;0.52;;
68523;SDS011;55524;51.380;13.372;2023-08-01T12:46:45;0.95;;;0.60;;
68523;SDS011;55524;51.380;13.372;2023-08-01T12:49:12;0.40;;;0.40;;
68523;SDS011;55524;51.380;13.372;2023-08-01T12:51:38;0.50;;;0.50;;
68523;SDS011;55524;51.380;13.372;2023-08-01T12:54:04;0.70;;;0.70;;
68523;SDS011;55524;51.380;13.372;2023-08-01T12:56:31;2.78;;;0.70;;
68523;SDS011;55524;51.380;13.372;2023-08-01T12:58:57;0.75;;;0.75;;
68523;SDS011;55524;51.380;13.372;2023-08-01T13:01:24;1.17;;;1.08;;
68523;SDS011;55524;51.380;13.372;2023-08-01T13:03:50;0.77;;;0.77;;
68523;SDS011;55524;51.380;13.372;2023-08-01T13:06:16;0.73;;;0.73;;
68523;SDS011;55524;51.380;13.372;2023-08-01T13:08:42;0.90;;;0.90;;
68523;SDS011;55524;51.380;13.372;2023-08-01T13:11:09;0.77;;;0.77;;
68523;SDS011;55524;51.380;13.372;2023-08-01T13:13:40;1.83;;;1.10;;
68523;SDS011;55524;51.380;13.372;2023-08-01T13:16:06;1.85;;;0.90;;
68523;SDS011;55524;51.380;13.372;2023-08-01T13:18:33;1.55;;;1.05;;
68523;SDS011;55524;51.380;13.372;2023-08-01T13:21:00;3.17;;;1.00;;
68523;SDS011;55524;51.380;13.372;2023-08-01T13:23:26;1.92;;;1.00;;
68523;SDS011;55524;51.380;13.372;2023-08-01T13:25:53;1.00;;;1.00;;
68523;SDS011;55524;51.380;13.372;2023-08-01T13:28:19;1.80;;;1.17;;
68523;SDS011;55524;51.380;13.372;2023-08-01T13:30:45;2.33;;;1.23;;
68523;SDS011;55524;51.380;13.372;2023-08-01T13:33:12;2.50;;;1.25;;
68523;SDS011;55524;51.380;13.372;2023-08-01T13:35:38;2.40;;;1.48;;
68523;SDS011;55524;51.380;13.372;2023-08-01T13:38:04;5.45;;;1.60;;
68523;SDS011;55524;51.380;13.372;2023-08-01T13:40:32;3.75;;;1.50;;
68523;SDS011;55524;51.380;13.372;2023-08-01T13:43:00;1.50;;;1.40;;
68523;SDS011;55524;51.380;13.372;2023-08-01T13:45:29;1.60;;;1.50;;
68523;SDS011;55524;51.380;13.372;2023-08-01T13:47:56;2.25;;;1.70;;
68523;SDS011;55524;51.380;13.372;2023-08-01T13:50:23;1.80;;;1.70;;
68523;SDS011;55524;51.380;13.372;2023-08-01T13:52:50;5.55;;;1.65;;
68523;SDS011;55524;51.380;13.372;2023-08-01T13:55:16;2.60;;;1.77;;
68523;SDS011;55524;51.380;13.372;2023-08-01T13:57:43;2.83;;;1.90;;
68523;SDS011;55524;51.380;13.372;2023-08-01T14:00:10;7.28;;;2.13;;
68523;SDS011;55524;51.380;13.372;2023-08-01T14:02:37;4.35;;;1.85;;
68523;SDS011;55524;51.380;13.372;2023-08-01T14:05:03;5.70;;;1.80;;
68523;SDS011;55524;51.380;13.372;2023-08-01T14:07:30;4.10;;;2.08;;
68523;SDS011;55524;51.380;13.372;2023-08-01T14:09:56;3.35;;;1.60;;
68523;SDS011;55524;51.380;13.372;2023-08-01T14:12:22;2.15;;;1.73;;
68523;SDS011;55524;51.380;13.372;2023-08-01T14:14:49;2.22;;;1.83;;
68523;SDS011;55524;51.380;13.372;2023-08-01T14:17:16;4.75;;;1.90;;
68523;SDS011;55524;51.380;13.372;2023-08-01T14:19:42;4.43;;;1.73;;
68523;SDS011;55524;51.380;13.372;2023-08-01T14:22:08;5.72;;;2.30;;
68523;SDS011;55524;51.380;13.372;2023-08-01T14:24:34;3.28;;;2.10;;
68523;SDS011;55524;51.380;13.372;2023-08-01T14:27:01;2.10;;;1.90;;
68523;SDS011;55524;51.380;13.372;2023-08-01T14:29:27;4.35;;;2.00;;
68523;SDS011;55524;51.380;13.372;2023-08-01T14:31:53;4.10;;;2.50;;
68523;SDS011;55524;51.380;13.372;2023-08-01T14:34:20;3.20;;;2.28;;
68523;SDS011;55524;51.380;13.372;2023-08-01T14:36:46;3.58;;;1.92;;
68523;SDS011;55524;51.380;13.372;2023-08-01T14:39:12;3.47;;;2.00;;
68523;SDS011;55524;51.380;13.372;2023-08-01T14:41:38;3.17;;;1.80;;
68523;SDS011;55524;51.380;13.372;2023-08-01T14:44:05;5.68;;;2.40;;
68523;SDS011;55524;51.380;13.372;2023-08-01T14:46:32;3.28;;;1.88;;
68523;SDS011;55524;51.380;13.372;2023-08-01T14:49:00;2.58;;;2.22;;
68523;SDS011;55524;51.380;13.372;2023-08-01T14:51:27;5.10;;;2.67;;